createdAt,value
2022-11-23T00:00:37.135Z,0
2022-11-23T00:01:37.185Z,0
2022-11-23T00:02:37.119Z,0
2022-11-23T00:03:37.115Z,0
2022-11-23T00:04:37.103Z,0
2022-11-23T00:05:37.089Z,0
2022-11-23T00:06:37.085Z,0
2022-11-23T00:07:37.068Z,0
2022-11-23T00:08:37.051Z,0
2022-11-23T00:09:37.045Z,0
2022-11-23T00:10:37.040Z,0
2022-11-23T00:11:37.022Z,0
2022-11-23T00:12:37.015Z,0
2022-11-23T00:13:37.020Z,0
2022-11-23T00:14:37.007Z,0
2022-11-23T00:15:36.980Z,0
2022-11-23T00:16:36.997Z,0
2022-11-23T00:17:36.971Z,0
2022-11-23T00:18:36.952Z,0
2022-11-23T00:19:36.937Z,0
2022-11-23T00:20:37.006Z,0
2022-11-23T00:21:36.925Z,0
2022-11-23T00:22:36.909Z,0
2022-11-23T00:23:36.899Z,0
2022-11-23T00:24:36.889Z,0
2022-11-23T00:25:36.874Z,0
2022-11-23T00:26:36.869Z,0
2022-11-23T00:27:36.858Z,0
2022-11-23T00:28:36.845Z,0
2022-11-23T00:29:36.835Z,0
2022-11-23T00:30:36.840Z,0
2022-11-23T00:31:36.814Z,0
2022-11-23T00:32:36.802Z,0
2022-11-23T00:33:36.799Z,0
2022-11-23T00:34:36.797Z,0
2022-11-23T00:35:36.771Z,0
2022-11-23T00:36:36.778Z,0
2022-11-23T00:37:36.763Z,0
2022-11-23T00:38:36.740Z,0
2022-11-23T00:39:36.735Z,0
2022-11-23T00:40:36.724Z,0
2022-11-23T00:41:36.711Z,0
2022-11-23T00:42:36.697Z,0
2022-11-23T00:43:36.690Z,0
2022-11-23T00:44:36.684Z,0
2022-11-23T00:45:36.672Z,0
2022-11-23T00:46:36.660Z,0
2022-11-23T00:47:36.646Z,0
2022-11-23T00:48:36.652Z,0
2022-11-23T00:49:36.627Z,0
2022-11-23T00:50:36.614Z,0
2022-11-23T00:51:36.608Z,0
2022-11-23T00:52:36.592Z,0
2022-11-23T00:53:36.582Z,0
2022-11-23T00:54:36.575Z,0
2022-11-23T00:55:36.566Z,0
2022-11-23T00:56:36.551Z,0
2022-11-23T00:57:36.540Z,0
2022-11-23T00:58:36.533Z,0
2022-11-23T00:59:36.523Z,0
2022-11-23T01:00:36.527Z,0
2022-11-23T01:01:36.505Z,0
2022-11-23T01:02:36.490Z,0
2022-11-23T01:03:36.491Z,0
2022-11-23T01:04:36.472Z,0
2022-11-23T01:05:36.456Z,0
2022-11-23T01:06:36.450Z,0
2022-11-23T01:07:36.472Z,0
2022-11-23T01:08:36.433Z,0
2022-11-23T01:09:36.421Z,0
2022-11-23T01:10:36.404Z,0
2022-11-23T01:11:36.401Z,0
2022-11-23T01:12:36.385Z,0
2022-11-23T01:13:36.372Z,0
2022-11-23T01:14:36.364Z,0
2022-11-23T01:15:36.364Z,0
2022-11-23T01:16:36.344Z,0
2022-11-23T01:17:36.332Z,0
2022-11-23T01:18:36.320Z,0
2022-11-23T01:19:36.309Z,0
2022-11-23T01:20:36.303Z,0
2022-11-23T01:21:36.288Z,0
2022-11-23T01:22:36.278Z,0
2022-11-23T01:23:36.276Z,0
2022-11-23T01:24:36.259Z,0
2022-11-23T01:25:36.246Z,0
2022-11-23T01:26:36.241Z,0
2022-11-23T01:27:36.242Z,0
2022-11-23T01:28:36.216Z,0
2022-11-23T01:29:36.213Z,0
2022-11-23T01:30:36.201Z,0
2022-11-23T01:31:36.188Z,0
2022-11-23T01:32:36.177Z,0
2022-11-23T01:33:36.177Z,0
2022-11-23T01:34:36.155Z,0
2022-11-23T01:35:36.173Z,0
2022-11-23T01:36:36.131Z,0
2022-11-23T01:37:36.121Z,0
2022-11-23T01:38:36.127Z,0
2022-11-23T01:39:36.107Z,0
2022-11-23T01:40:36.087Z,0
2022-11-23T01:41:36.081Z,0
2022-11-23T01:42:36.066Z,0
2022-11-23T01:43:36.060Z,0
2022-11-23T01:44:36.068Z,0
2022-11-23T01:45:36.042Z,0
2022-11-23T01:46:36.027Z,0
2022-11-23T01:47:36.014Z,0
2022-11-23T01:48:36.004Z,0
2022-11-23T01:49:35.995Z,0
2022-11-23T01:50:35.985Z,0
2022-11-23T01:51:35.976Z,0
2022-11-23T01:52:35.967Z,0
2022-11-23T01:53:35.962Z,0
2022-11-23T01:54:35.977Z,0
2022-11-23T01:55:35.934Z,0
2022-11-23T01:56:35.927Z,0
2022-11-23T01:57:35.908Z,0
2022-11-23T01:58:35.900Z,0
2022-11-23T01:59:35.906Z,0
2022-11-23T02:00:35.880Z,0
2022-11-23T02:01:35.877Z,0
2022-11-23T02:02:35.885Z,0
2022-11-23T02:03:35.852Z,0
2022-11-23T02:04:35.841Z,0
2022-11-23T02:05:35.826Z,0
2022-11-23T02:06:35.812Z,0
2022-11-23T02:07:35.801Z,0
2022-11-23T02:08:35.805Z,0
2022-11-23T02:09:35.784Z,0
2022-11-23T02:10:35.770Z,0
2022-11-23T02:11:35.777Z,0
2022-11-23T02:12:35.765Z,0
2022-11-23T02:13:35.750Z,0
2022-11-23T02:14:35.749Z,0
2022-11-23T02:15:35.725Z,0
2022-11-23T02:16:35.725Z,0
2022-11-23T02:17:35.701Z,0
2022-11-23T02:18:35.686Z,0
2022-11-23T02:19:35.684Z,0
2022-11-23T02:20:35.690Z,0
2022-11-23T02:21:35.655Z,0
2022-11-23T02:22:35.651Z,0
2022-11-23T02:23:35.657Z,0
2022-11-23T02:24:35.622Z,0
2022-11-23T02:25:35.616Z,0
2022-11-23T02:26:35.630Z,0
2022-11-23T02:27:35.594Z,0
2022-11-23T02:28:35.586Z,0
2022-11-23T02:29:35.575Z,0
2022-11-23T02:30:35.561Z,0
2022-11-23T02:31:35.561Z,0
2022-11-23T02:32:35.545Z,0
2022-11-23T02:33:35.546Z,0
2022-11-23T02:34:35.549Z,0
2022-11-23T02:35:35.509Z,0
2022-11-23T02:36:35.501Z,0
2022-11-23T02:37:35.491Z,0
2022-11-23T02:38:35.481Z,0
2022-11-23T02:39:35.468Z,0
2022-11-23T02:40:35.460Z,0
2022-11-23T02:41:35.443Z,0
2022-11-23T02:42:35.437Z,0
2022-11-23T02:43:35.435Z,0
2022-11-23T02:44:35.417Z,0
2022-11-23T02:45:35.406Z,0
2022-11-23T02:46:35.401Z,0
2022-11-23T02:47:35.396Z,0
2022-11-23T02:48:35.379Z,0
2022-11-23T02:49:35.373Z,0
2022-11-23T02:50:35.355Z,0
2022-11-23T02:51:35.342Z,0
2022-11-23T02:52:35.377Z,0
2022-11-23T02:53:35.318Z,0
2022-11-23T02:54:35.320Z,0
2022-11-23T02:55:35.316Z,0
2022-11-23T02:56:35.292Z,0
2022-11-23T02:57:35.278Z,0
2022-11-23T02:58:35.267Z,0
2022-11-23T02:59:35.258Z,0
2022-11-23T03:00:35.247Z,0
2022-11-23T03:01:35.236Z,0
2022-11-23T03:02:35.239Z,0
2022-11-23T03:03:35.215Z,0
2022-11-23T03:04:35.209Z,0
2022-11-23T03:05:35.193Z,0
2022-11-23T03:06:35.211Z,0
2022-11-23T03:07:35.169Z,0
2022-11-23T03:08:35.157Z,0
2022-11-23T03:09:35.181Z,0
2022-11-23T03:10:35.143Z,0
2022-11-23T03:11:35.131Z,0
2022-11-23T03:12:35.143Z,0
2022-11-23T03:13:35.107Z,0
2022-11-23T03:14:35.102Z,0
2022-11-23T03:15:35.085Z,0
2022-11-23T03:16:35.075Z,0
2022-11-23T03:17:35.075Z,0
2022-11-23T03:18:35.063Z,0
2022-11-23T03:19:35.051Z,0
2022-11-23T03:20:35.046Z,0
2022-11-23T03:21:35.025Z,0
2022-11-23T03:22:35.016Z,0
2022-11-23T03:23:35.014Z,0
2022-11-23T03:24:34.993Z,0
2022-11-23T03:25:34.983Z,0
2022-11-23T03:26:34.976Z,0
2022-11-23T03:27:34.965Z,0
2022-11-23T03:28:34.949Z,0
2022-11-23T03:29:34.943Z,0
2022-11-23T03:30:34.932Z,0
2022-11-23T03:31:34.920Z,0
2022-11-23T03:32:34.924Z,0
2022-11-23T03:33:34.920Z,0
2022-11-23T03:34:34.908Z,0
2022-11-23T03:35:34.880Z,0
2022-11-23T03:36:34.879Z,0
2022-11-23T03:37:34.860Z,0
2022-11-23T03:38:34.847Z,0
2022-11-23T03:39:34.836Z,0
2022-11-23T03:40:34.827Z,0
2022-11-23T03:41:34.819Z,0
2022-11-23T03:42:34.801Z,0
2022-11-23T03:43:34.796Z,0
2022-11-23T03:44:34.783Z,0
2022-11-23T03:45:34.774Z,0
2022-11-23T03:46:34.771Z,0
2022-11-23T03:47:34.801Z,0
2022-11-23T03:48:34.766Z,0
2022-11-23T03:49:34.727Z,0
2022-11-23T03:50:34.744Z,0
2022-11-23T03:51:34.712Z,0
2022-11-23T03:52:34.724Z,0
2022-11-23T03:53:34.740Z,0
2022-11-23T03:54:34.675Z,0
2022-11-23T03:55:34.671Z,0
2022-11-23T03:56:34.675Z,0
2022-11-23T03:57:34.657Z,0
2022-11-23T03:58:34.633Z,0
2022-11-23T03:59:34.642Z,0
2022-11-23T04:00:34.621Z,0
2022-11-23T04:01:34.617Z,0
2022-11-23T04:02:34.593Z,0
2022-11-23T04:03:34.590Z,0
2022-11-23T04:04:34.572Z,0
2022-11-23T04:05:34.560Z,0
2022-11-23T04:06:34.571Z,0
2022-11-23T04:07:34.538Z,0
2022-11-23T04:08:34.525Z,0
2022-11-23T04:09:34.552Z,0
2022-11-23T04:10:34.505Z,0
2022-11-23T04:11:34.496Z,0
2022-11-23T04:12:34.493Z,0
2022-11-23T04:13:34.479Z,0
2022-11-23T04:14:34.471Z,0
2022-11-23T04:15:34.454Z,0
2022-11-23T04:16:34.457Z,0
2022-11-23T04:17:34.447Z,0
2022-11-23T04:18:34.434Z,0
2022-11-23T04:19:34.428Z,0
2022-11-23T04:20:34.402Z,0
2022-11-23T04:21:34.403Z,0
2022-11-23T04:22:34.386Z,0
2022-11-23T04:23:34.373Z,0
2022-11-23T04:24:34.356Z,0
2022-11-23T04:25:34.358Z,0
2022-11-23T04:26:34.340Z,0
2022-11-23T04:27:34.341Z,0
2022-11-23T04:28:34.329Z,0
2022-11-23T04:29:34.305Z,0
2022-11-23T04:30:34.308Z,0
2022-11-23T04:31:34.292Z,0
2022-11-23T04:32:34.270Z,0
2022-11-23T04:33:34.264Z,0
2022-11-23T04:34:34.268Z,0
2022-11-23T04:35:34.250Z,0
2022-11-23T04:36:34.240Z,0
2022-11-23T04:37:34.226Z,0
2022-11-23T04:38:34.210Z,0
2022-11-23T04:39:34.213Z,0
2022-11-23T04:40:34.194Z,0
2022-11-23T04:41:34.178Z,0
2022-11-23T04:42:34.168Z,0
2022-11-23T04:43:34.163Z,0
2022-11-23T04:44:34.147Z,0
2022-11-23T04:45:34.141Z,0
2022-11-23T04:46:34.128Z,0
2022-11-23T04:47:34.117Z,0
2022-11-23T04:48:34.106Z,0
2022-11-23T04:49:34.097Z,0
2022-11-23T04:50:34.118Z,0
2022-11-23T04:51:34.074Z,0
2022-11-23T04:52:34.062Z,0
2022-11-23T04:53:34.050Z,0
2022-11-23T04:54:34.045Z,0
2022-11-23T04:55:34.032Z,0
2022-11-23T04:56:34.020Z,0
2022-11-23T04:57:34.009Z,0
2022-11-23T04:58:33.997Z,0
2022-11-23T04:59:33.991Z,0
2022-11-23T05:00:33.983Z,0
2022-11-23T05:01:33.964Z,0
2022-11-23T05:02:33.962Z,0
2022-11-23T05:03:33.948Z,0
2022-11-23T05:04:33.959Z,0
2022-11-23T05:05:33.924Z,0
2022-11-23T05:06:33.919Z,0
2022-11-23T05:07:33.926Z,0
2022-11-23T05:08:33.897Z,0
2022-11-23T05:09:33.886Z,0
2022-11-23T05:10:33.881Z,0
2022-11-23T05:11:33.862Z,0
2022-11-23T05:12:33.856Z,0
2022-11-23T05:13:33.839Z,0
2022-11-23T05:14:33.832Z,0
2022-11-23T05:15:33.825Z,0
2022-11-23T05:16:33.843Z,0
2022-11-23T05:17:33.805Z,0
2022-11-23T05:18:33.787Z,0
2022-11-23T05:19:33.782Z,0
2022-11-23T05:20:33.774Z,0
2022-11-23T05:21:33.756Z,0
2022-11-23T05:22:33.743Z,0
2022-11-23T05:23:33.758Z,0
2022-11-23T05:24:33.724Z,0
2022-11-23T05:25:33.710Z,0
2022-11-23T05:26:33.742Z,0
2022-11-23T05:27:33.706Z,0
2022-11-23T05:28:33.683Z,0
2022-11-23T05:29:33.675Z,0
2022-11-23T05:30:33.661Z,0
2022-11-23T05:31:33.650Z,0
2022-11-23T05:32:33.644Z,0
2022-11-23T05:33:33.654Z,0
2022-11-23T05:34:33.614Z,0
2022-11-23T05:35:33.618Z,0
2022-11-23T05:36:33.598Z,0
2022-11-23T05:37:33.592Z,0
2022-11-23T05:38:33.581Z,0
2022-11-23T05:39:33.572Z,0
2022-11-23T05:40:33.558Z,0
2022-11-23T05:41:33.544Z,0
2022-11-23T05:42:33.544Z,0
2022-11-23T05:43:33.523Z,0
2022-11-23T05:44:33.508Z,0
2022-11-23T05:45:33.502Z,0
2022-11-23T05:46:33.503Z,0
2022-11-23T05:47:33.478Z,0
2022-11-23T05:48:33.495Z,0
2022-11-23T05:49:33.476Z,0
2022-11-23T05:50:33.460Z,0
2022-11-23T05:51:33.449Z,0
2022-11-23T05:52:33.442Z,0
2022-11-23T05:53:33.458Z,0
2022-11-23T05:54:33.459Z,0
2022-11-23T05:55:33.402Z,0
2022-11-23T05:56:33.393Z,0
2022-11-23T05:57:33.397Z,0
2022-11-23T05:58:33.363Z,0
2022-11-23T05:59:33.352Z,0
2022-11-23T06:00:33.345Z,0
2022-11-23T06:01:33.332Z,0
2022-11-23T06:02:33.345Z,0
2022-11-23T06:03:33.312Z,0
2022-11-23T06:04:33.327Z,0
2022-11-23T06:05:33.302Z,0
2022-11-23T06:06:33.278Z,0
2022-11-23T06:07:33.289Z,0
2022-11-23T06:08:33.263Z,0
2022-11-23T06:09:33.249Z,0
2022-11-23T06:10:33.247Z,0
2022-11-23T06:11:33.244Z,0
2022-11-23T06:12:33.228Z,0
2022-11-23T06:13:33.209Z,0
2022-11-23T06:14:33.200Z,0
2022-11-23T06:15:33.201Z,0
2022-11-23T06:16:33.213Z,0
2022-11-23T06:17:33.164Z,0
2022-11-23T06:18:33.153Z,0
2022-11-23T06:19:33.149Z,0
2022-11-23T06:20:33.141Z,0
2022-11-23T06:21:33.128Z,0
2022-11-23T06:22:33.139Z,0
2022-11-23T06:23:33.100Z,0
2022-11-23T06:24:33.300Z,0
2022-11-23T06:25:33.082Z,0
2022-11-23T06:26:33.074Z,0
2022-11-23T06:27:33.085Z,0
2022-11-23T06:28:33.049Z,0
2022-11-23T06:29:33.041Z,0
2022-11-23T06:30:33.040Z,0
2022-11-23T06:31:33.026Z,0
2022-11-23T06:32:33.011Z,0
2022-11-23T06:33:33.000Z,0
2022-11-23T06:34:32.986Z,0
2022-11-23T06:35:32.995Z,0
2022-11-23T06:36:32.965Z,0
2022-11-23T06:37:32.950Z,0
2022-11-23T06:38:32.944Z,0
2022-11-23T06:39:32.929Z,0
2022-11-23T06:40:32.937Z,0
2022-11-23T06:41:32.911Z,0
2022-11-23T06:42:32.923Z,0
2022-11-23T06:43:32.917Z,0
2022-11-23T06:44:32.928Z,0
2022-11-23T06:45:32.875Z,0
2022-11-23T06:46:32.882Z,0
2022-11-23T06:47:33.847Z,0
2022-11-23T06:48:32.849Z,0
2022-11-23T06:49:32.824Z,0
2022-11-23T06:50:32.815Z,0
2022-11-23T06:51:32.805Z,0
2022-11-23T06:52:32.799Z,0
2022-11-23T06:53:32.787Z,0
2022-11-23T06:54:32.788Z,0
2022-11-23T06:55:32.785Z,0
2022-11-23T06:56:32.763Z,0
2022-11-23T06:57:32.760Z,0
2022-11-23T06:58:32.730Z,0
2022-11-23T06:59:32.853Z,0
2022-11-23T07:00:32.710Z,0
2022-11-23T07:01:32.731Z,0
2022-11-23T07:02:32.688Z,0
2022-11-23T07:03:32.673Z,0
2022-11-23T07:04:32.667Z,0
2022-11-23T07:05:32.657Z,0
2022-11-23T07:06:32.644Z,0
2022-11-23T07:07:32.669Z,0
2022-11-23T07:08:32.625Z,0
2022-11-23T07:09:32.621Z,0
2022-11-23T07:10:32.607Z,0
2022-11-23T07:11:32.613Z,0
2022-11-23T07:12:32.589Z,0
2022-11-23T07:13:32.575Z,0
2022-11-23T07:14:32.589Z,5.62
2022-11-23T07:15:32.550Z,5.62
2022-11-23T07:16:32.537Z,5.62
2022-11-23T07:17:32.536Z,0
2022-11-23T07:18:32.535Z,5.62
2022-11-23T07:19:32.512Z,5.62
2022-11-23T07:20:32.498Z,5.62
2022-11-23T07:21:32.488Z,5.62
2022-11-23T07:22:32.482Z,5.62
2022-11-23T07:23:32.466Z,5.62
2022-11-23T07:24:32.452Z,5.62
2022-11-23T07:25:32.454Z,5.62
2022-11-23T07:26:32.434Z,5.62
2022-11-23T07:27:32.428Z,5.62
2022-11-23T07:28:32.435Z,5.62
2022-11-23T07:29:32.424Z,5.62
2022-11-23T07:30:32.395Z,5.62
2022-11-23T07:31:32.384Z,5.62
2022-11-23T07:32:32.370Z,5.62
2022-11-23T07:33:32.363Z,11.25
2022-11-23T07:34:32.362Z,11.25
2022-11-23T07:35:32.365Z,11.25
2022-11-23T07:36:32.347Z,11.25
2022-11-23T07:37:32.318Z,11.25
2022-11-23T07:38:32.309Z,11.25
2022-11-23T07:39:32.343Z,11.25
2022-11-23T07:40:32.283Z,11.25
2022-11-23T07:41:32.291Z,11.25
2022-11-23T07:42:32.267Z,11.25
2022-11-23T07:43:32.273Z,11.25
2022-11-23T07:44:32.268Z,11.25
2022-11-23T07:45:32.237Z,11.25
2022-11-23T07:46:32.227Z,11.25
2022-11-23T07:47:32.219Z,11.25
2022-11-23T07:48:32.197Z,11.25
2022-11-23T07:49:32.199Z,11.25
2022-11-23T07:50:32.182Z,11.25
2022-11-23T07:51:32.180Z,11.25
2022-11-23T07:52:32.154Z,11.25
2022-11-23T07:53:32.155Z,11.25
2022-11-23T07:54:32.144Z,16.88
2022-11-23T07:55:32.142Z,16.88
2022-11-23T07:56:32.114Z,16.88
2022-11-23T07:57:32.101Z,16.88
2022-11-23T07:58:32.097Z,16.88
2022-11-23T07:59:32.115Z,16.88
2022-11-23T08:00:32.088Z,16.88
2022-11-23T08:01:32.071Z,16.88
2022-11-23T08:02:32.062Z,16.88
2022-11-23T08:03:32.062Z,16.88
2022-11-23T08:04:32.059Z,16.88
2022-11-23T08:05:32.033Z,16.88
2022-11-23T08:06:32.021Z,22.5
2022-11-23T08:07:32.022Z,22.5
2022-11-23T08:08:31.998Z,22.5
2022-11-23T08:09:31.994Z,22.5
2022-11-23T08:10:31.976Z,22.5
2022-11-23T08:11:31.968Z,22.5
2022-11-23T08:12:31.987Z,22.5
2022-11-23T08:13:31.964Z,22.5
2022-11-23T08:14:31.942Z,22.5
2022-11-23T08:15:31.925Z,22.5
2022-11-23T08:16:31.919Z,22.5
2022-11-23T08:17:31.904Z,22.5
2022-11-23T08:18:31.969Z,28.12
2022-11-23T08:19:31.913Z,28.12
2022-11-23T08:20:31.878Z,28.12
2022-11-23T08:21:31.865Z,33.75
2022-11-23T08:22:31.858Z,33.75
2022-11-23T08:23:31.843Z,33.75
2022-11-23T08:24:31.967Z,33.75
2022-11-23T08:25:31.823Z,39.38
2022-11-23T08:26:31.820Z,45
2022-11-23T08:27:31.863Z,50.62
2022-11-23T08:28:31.807Z,45
2022-11-23T08:29:31.784Z,45
2022-11-23T08:30:31.772Z,45
2022-11-23T08:31:31.787Z,45
2022-11-23T08:32:31.753Z,50.62
2022-11-23T08:33:32.740Z,50.62
2022-11-23T08:34:31.763Z,56.25
2022-11-23T08:35:32.387Z,56.25
2022-11-23T08:36:31.707Z,50.62
2022-11-23T08:37:31.698Z,39.38
2022-11-23T08:38:31.679Z,39.38
2022-11-23T08:39:31.700Z,39.38
2022-11-23T08:40:31.703Z,39.38
2022-11-23T08:41:31.685Z,33.75
2022-11-23T08:42:31.744Z,28.12
2022-11-23T08:43:31.680Z,28.12
2022-11-23T08:44:31.615Z,28.12
2022-11-23T08:45:31.695Z,28.12
2022-11-23T08:46:31.700Z,28.12
2022-11-23T08:47:31.675Z,28.12
2022-11-23T08:48:31.577Z,28.12
2022-11-23T08:49:31.563Z,28.12
2022-11-23T08:50:31.556Z,28.12
2022-11-23T08:51:31.571Z,28.12
2022-11-23T08:52:31.543Z,28.12
2022-11-23T08:53:31.568Z,28.12
2022-11-23T08:54:31.518Z,28.12
2022-11-23T08:55:31.503Z,28.12
2022-11-23T08:56:31.505Z,28.12
2022-11-23T08:57:31.492Z,28.12
2022-11-23T08:58:31.487Z,28.12
2022-11-23T08:59:32.374Z,33.75
2022-11-23T09:00:31.454Z,33.75
2022-11-23T09:01:31.450Z,33.75
2022-11-23T09:02:31.435Z,39.38
2022-11-23T09:03:31.418Z,45
2022-11-23T09:04:31.406Z,50.62
2022-11-23T09:05:31.416Z,45
2022-11-23T09:06:31.388Z,39.38
2022-11-23T09:07:31.378Z,39.38
2022-11-23T09:08:31.382Z,39.38
2022-11-23T09:09:31.360Z,39.38
2022-11-23T09:10:31.342Z,45
2022-11-23T09:11:31.339Z,50.62
2022-11-23T09:12:31.326Z,61.88
2022-11-23T09:13:31.323Z,67.5
2022-11-23T09:14:31.334Z,73.12
2022-11-23T09:15:31.292Z,67.5
2022-11-23T09:16:31.293Z,67.5
2022-11-23T09:17:31.273Z,67.5
2022-11-23T09:18:31.410Z,67.5
2022-11-23T09:19:31.258Z,67.5
2022-11-23T09:20:31.366Z,73.12
2022-11-23T09:21:31.231Z,78.75
2022-11-23T09:22:31.281Z,78.75
2022-11-23T09:23:31.207Z,73.12
2022-11-23T09:24:31.217Z,78.75
2022-11-23T09:25:31.193Z,78.75
2022-11-23T09:26:31.201Z,84.38
2022-11-23T09:27:31.165Z,95.62
2022-11-23T09:28:31.171Z,101.25
2022-11-23T09:29:31.164Z,95.62
2022-11-23T09:30:31.142Z,95.62
2022-11-23T09:31:31.140Z,90
2022-11-23T09:32:31.124Z,95.62
2022-11-23T09:33:31.101Z,106.88
2022-11-23T09:34:31.102Z,118.12
2022-11-23T09:35:31.163Z,135
2022-11-23T09:36:31.092Z,140.62
2022-11-23T09:37:31.063Z,129.38
2022-11-23T09:38:31.059Z,112.5
2022-11-23T09:39:31.110Z,106.88
2022-11-23T09:40:31.066Z,101.25
2022-11-23T09:41:31.018Z,112.5
2022-11-23T09:42:31.011Z,123.75
2022-11-23T09:43:30.995Z,123.75
2022-11-23T09:44:31.005Z,129.38
2022-11-23T09:45:31.001Z,129.38
2022-11-23T09:46:30.983Z,123.75
2022-11-23T09:47:30.955Z,118.12
2022-11-23T09:48:30.954Z,112.5
2022-11-23T09:49:30.966Z,95.62
2022-11-23T09:50:30.944Z,84.38
2022-11-23T09:51:30.982Z,84.38
2022-11-23T09:52:30.900Z,90
2022-11-23T09:53:30.915Z,95.62
2022-11-23T09:54:30.891Z,101.25
2022-11-23T09:55:30.878Z,101.25
2022-11-23T09:56:30.885Z,101.25
2022-11-23T09:57:30.854Z,101.25
2022-11-23T09:58:30.851Z,101.25
2022-11-23T09:59:30.837Z,106.88
2022-11-23T10:00:30.813Z,106.88
2022-11-23T10:01:30.813Z,101.25
2022-11-23T10:02:30.810Z,106.88
2022-11-23T10:03:30.800Z,112.5
2022-11-23T10:04:30.771Z,112.5
2022-11-23T10:05:30.763Z,106.88
2022-11-23T10:06:30.751Z,101.25
2022-11-23T10:07:30.743Z,106.88
2022-11-23T10:08:30.736Z,118.12
2022-11-23T10:09:30.777Z,129.38
2022-11-23T10:10:30.712Z,135
2022-11-23T10:11:30.702Z,140.62
2022-11-23T10:12:30.690Z,135
2022-11-23T10:13:30.679Z,135
2022-11-23T10:14:30.670Z,135
2022-11-23T10:15:30.654Z,140.62
2022-11-23T10:16:30.644Z,135
2022-11-23T10:17:30.647Z,123.75
2022-11-23T10:18:30.633Z,112.5
2022-11-23T10:19:30.619Z,106.88
2022-11-23T10:20:30.611Z,106.88
2022-11-23T10:21:30.602Z,101.25
2022-11-23T10:22:30.599Z,112.5
2022-11-23T10:23:30.569Z,129.38
2022-11-23T10:24:30.562Z,140.62
2022-11-23T10:25:30.559Z,135
2022-11-23T10:26:30.542Z,140.62
2022-11-23T10:27:30.558Z,140.62
2022-11-23T10:28:30.521Z,146.25
2022-11-23T10:29:30.687Z,146.25
2022-11-23T10:30:31.506Z,140.62
2022-11-23T10:31:30.487Z,140.62
2022-11-23T10:32:30.488Z,146.25
2022-11-23T10:33:30.480Z,146.25
2022-11-23T10:34:30.483Z,146.25
2022-11-23T10:35:30.472Z,140.62
2022-11-23T10:36:30.444Z,168.75
2022-11-23T10:37:30.435Z,174.38
2022-11-23T10:38:30.417Z,180
2022-11-23T10:39:30.431Z,191.25
2022-11-23T10:40:30.562Z,196.88
2022-11-23T10:41:30.403Z,202.5
2022-11-23T10:42:30.378Z,191.25
2022-11-23T10:43:30.360Z,185.62
2022-11-23T10:44:30.385Z,191.25
2022-11-23T10:45:30.340Z,196.88
2022-11-23T10:46:30.335Z,185.62
2022-11-23T10:47:30.326Z,163.12
2022-11-23T10:48:30.312Z,151.88
2022-11-23T10:49:30.307Z,129.38
2022-11-23T10:50:30.294Z,118.12
2022-11-23T10:51:30.288Z,106.88
2022-11-23T10:52:30.282Z,106.88
2022-11-23T10:53:30.258Z,106.88
2022-11-23T10:54:30.310Z,106.88
2022-11-23T10:55:30.251Z,101.25
2022-11-23T10:56:30.222Z,101.25
2022-11-23T10:57:30.236Z,101.25
2022-11-23T10:58:30.233Z,101.25
2022-11-23T10:59:30.200Z,101.25
2022-11-23T11:00:30.195Z,101.25
2022-11-23T11:01:30.177Z,101.25
2022-11-23T11:02:30.163Z,101.25
2022-11-23T11:03:30.156Z,101.25
2022-11-23T11:04:30.159Z,101.25
2022-11-23T11:05:30.160Z,106.88
2022-11-23T11:06:30.155Z,101.25
2022-11-23T11:07:30.130Z,106.88
2022-11-23T11:08:30.113Z,106.88
2022-11-23T11:09:30.088Z,106.88
2022-11-23T11:10:30.084Z,106.88
2022-11-23T11:11:30.072Z,101.25
2022-11-23T11:12:30.070Z,101.25
2022-11-23T11:13:30.049Z,101.25
2022-11-23T11:14:30.040Z,106.88
2022-11-23T11:15:30.822Z,112.5
2022-11-23T11:16:30.045Z,112.5
2022-11-23T11:17:30.005Z,112.5
2022-11-23T11:18:30.010Z,106.88
2022-11-23T11:19:29.983Z,112.5
2022-11-23T11:20:29.973Z,112.5
2022-11-23T11:21:29.959Z,112.5
2022-11-23T11:22:29.952Z,112.5
2022-11-23T11:23:29.941Z,112.5
2022-11-23T11:24:29.948Z,118.12
2022-11-23T11:25:29.927Z,112.5
2022-11-23T11:26:29.905Z,123.75
2022-11-23T11:27:29.900Z,118.12
2022-11-23T11:28:29.888Z,123.75
2022-11-23T11:29:29.879Z,129.38
2022-11-23T11:30:29.875Z,140.62
2022-11-23T11:31:29.897Z,151.88
2022-11-23T11:32:29.849Z,157.5
2022-11-23T11:33:29.878Z,596.25
2022-11-23T11:34:29.824Z,1631.25
2022-11-23T11:35:29.830Z,2041.88
2022-11-23T11:36:29.798Z,1890
2022-11-23T11:37:29.792Z,1867.5
2022-11-23T11:38:29.783Z,2025
2022-11-23T11:39:29.770Z,2013.75
2022-11-23T11:40:29.763Z,1867.5
2022-11-23T11:41:29.752Z,1940.62
2022-11-23T11:42:29.739Z,2013.75
2022-11-23T11:43:29.724Z,1957.5
2022-11-23T11:44:29.722Z,1833.75
2022-11-23T11:45:29.726Z,1822.5
2022-11-23T11:46:29.759Z,1918.12
2022-11-23T11:47:29.686Z,1935
2022-11-23T11:48:29.679Z,1890
2022-11-23T11:49:29.665Z,1805.62
2022-11-23T11:50:29.670Z,1940.62
2022-11-23T11:51:29.646Z,1985.62
2022-11-23T11:52:29.654Z,1940.62
2022-11-23T11:53:29.623Z,1822.5
2022-11-23T11:54:29.626Z,1873.12
2022-11-23T11:55:29.618Z,1845
2022-11-23T11:56:29.594Z,1833.75
2022-11-23T11:57:29.582Z,1935
2022-11-23T11:58:29.605Z,1867.5
2022-11-23T11:59:29.622Z,1946.25
2022-11-23T12:00:29.550Z,1518.75
2022-11-23T12:01:29.542Z,354.38
2022-11-23T12:02:29.531Z,191.25
2022-11-23T12:03:29.524Z,258.75
2022-11-23T12:04:29.517Z,241.88
2022-11-23T12:05:29.546Z,180
2022-11-23T12:06:29.494Z,123.75
2022-11-23T12:07:29.519Z,95.62
2022-11-23T12:08:29.475Z,129.38
2022-11-23T12:09:29.462Z,106.88
2022-11-23T12:10:29.451Z,101.25
2022-11-23T12:11:29.444Z,118.12
2022-11-23T12:12:29.448Z,157.5
2022-11-23T12:13:29.422Z,168.75
2022-11-23T12:14:29.418Z,163.12
2022-11-23T12:15:29.399Z,163.12
2022-11-23T12:16:29.388Z,151.88
2022-11-23T12:18:29.373Z,202.5
2022-11-23T12:19:29.395Z,309.38
2022-11-23T12:20:29.342Z,258.75
2022-11-23T12:21:29.331Z,196.88
2022-11-23T12:22:29.327Z,168.75
2022-11-23T12:23:29.311Z,157.5
2022-11-23T12:24:29.299Z,174.38
2022-11-23T12:25:29.286Z,168.75
2022-11-23T12:26:29.287Z,174.38
2022-11-23T12:27:29.275Z,168.75
2022-11-23T12:28:29.256Z,151.88
2022-11-23T12:29:29.248Z,157.5
2022-11-23T12:30:29.242Z,146.25
2022-11-23T12:31:29.232Z,129.38
2022-11-23T12:32:29.215Z,118.12
2022-11-23T12:33:29.211Z,112.5
2022-11-23T12:34:30.220Z,106.88
2022-11-23T12:35:29.192Z,106.88
2022-11-23T12:36:29.177Z,101.25
2022-11-23T12:37:29.165Z,101.25
2022-11-23T12:38:29.150Z,106.88
2022-11-23T12:39:29.148Z,106.88
2022-11-23T12:40:29.139Z,112.5
2022-11-23T12:41:29.122Z,106.88
2022-11-23T12:42:29.108Z,95.62
2022-11-23T12:43:29.099Z,101.25
2022-11-23T12:44:29.091Z,101.25
2022-11-23T12:45:29.096Z,95.62
2022-11-23T12:46:29.069Z,90
2022-11-23T12:47:29.086Z,84.38
2022-11-23T12:48:29.057Z,90
2022-11-23T12:49:29.036Z,95.62
2022-11-23T12:50:29.031Z,90
2022-11-23T12:51:29.023Z,84.38
2022-11-23T12:52:29.004Z,84.38
2022-11-23T12:53:28.998Z,78.75
2022-11-23T12:54:28.981Z,73.12
2022-11-23T12:55:28.976Z,78.75
2022-11-23T12:56:28.962Z,73.12
2022-11-23T12:57:28.960Z,67.5
2022-11-23T12:58:28.941Z,67.5
2022-11-23T12:59:28.932Z,73.12
2022-11-23T13:00:28.923Z,73.12
2022-11-23T13:01:28.912Z,73.12
2022-11-23T13:02:28.908Z,84.38
2022-11-23T13:03:28.915Z,78.75
2022-11-23T13:04:28.879Z,73.12
2022-11-23T13:05:28.872Z,78.75
2022-11-23T13:06:28.862Z,78.75
2022-11-23T13:07:28.847Z,73.12
2022-11-23T13:08:28.842Z,73.12
2022-11-23T13:09:28.846Z,67.5
2022-11-23T13:10:28.814Z,67.5
2022-11-23T13:11:28.812Z,67.5
2022-11-23T13:12:28.799Z,67.5
2022-11-23T13:13:28.787Z,67.5
2022-11-23T13:14:28.773Z,67.5
2022-11-23T13:15:28.780Z,67.5
2022-11-23T13:16:28.753Z,67.5
2022-11-23T13:17:28.742Z,67.5
2022-11-23T13:18:28.726Z,67.5
2022-11-23T13:19:28.716Z,61.88
2022-11-23T13:20:28.711Z,61.88
2022-11-23T13:21:28.715Z,61.88
2022-11-23T13:22:28.693Z,61.88
2022-11-23T13:23:28.676Z,61.88
2022-11-23T13:24:28.662Z,61.88
2022-11-23T13:25:28.654Z,61.88
2022-11-23T13:26:28.662Z,61.88
2022-11-23T13:27:28.636Z,61.88
2022-11-23T13:28:28.624Z,56.25
2022-11-23T13:29:28.608Z,56.25
2022-11-23T13:30:28.601Z,56.25
2022-11-23T13:31:28.589Z,56.25
2022-11-23T13:32:28.578Z,56.25
2022-11-23T13:33:28.565Z,50.62
2022-11-23T13:34:28.592Z,56.25
2022-11-23T13:35:28.558Z,56.25
2022-11-23T13:36:28.534Z,56.25
2022-11-23T13:37:28.529Z,56.25
2022-11-23T13:38:28.520Z,50.62
2022-11-23T13:39:28.512Z,50.62
2022-11-23T13:40:28.495Z,50.62
2022-11-23T13:41:28.482Z,50.62
2022-11-23T13:42:28.473Z,50.62
2022-11-23T13:43:28.459Z,50.62
2022-11-23T13:44:28.447Z,50.62
2022-11-23T13:45:28.456Z,50.62
2022-11-23T13:46:28.430Z,50.62
2022-11-23T13:47:28.420Z,50.62
2022-11-23T13:48:28.409Z,45